createdAt,value
2019-05-22T00:00:23.919Z,93.70
2019-05-22T00:01:23.879Z,93.70
2019-05-22T00:02:23.893Z,93.60
2019-05-22T00:03:23.991Z,93.60
2019-05-22T00:04:23.849Z,93.60
2019-05-22T00:05:23.862Z,93.60
2019-05-22T00:06:23.826Z,93.60
2019-05-22T00:07:23.824Z,93.60
2019-05-22T00:08:23.810Z,93.50
2019-05-22T00:09:23.957Z,93.50
2019-05-22T00:10:23.781Z,93.50
2019-05-22T00:11:23.760Z,93.50
2019-05-22T00:12:23.760Z,93.50
2019-05-22T00:13:23.770Z,93.40
2019-05-22T00:14:23.748Z,93.40
2019-05-22T00:15:23.851Z,93.40
2019-05-22T00:16:23.744Z,93.50
2019-05-22T00:17:23.740Z,93.50
2019-05-22T00:18:23.803Z,93.50
2019-05-22T00:19:23.760Z,93.50
2019-05-22T00:20:23.691Z,93.50
2019-05-22T00:21:23.663Z,93.50
2019-05-22T00:22:23.686Z,93.40
2019-05-22T00:23:23.682Z,93.09
2019-05-22T00:24:23.734Z,92.99
2019-05-22T00:25:23.646Z,92.89
2019-05-22T00:26:23.639Z,92.68
2019-05-22T00:27:23.593Z,92.58
2019-05-22T00:28:23.603Z,92.27
2019-05-22T00:29:23.696Z,92.07
2019-05-22T00:30:23.590Z,91.87
2019-05-22T00:31:23.541Z,91.97
2019-05-22T00:32:23.549Z,91.97
2019-05-22T00:33:23.522Z,91.46
2019-05-22T00:34:23.623Z,91.26
2019-05-22T00:35:23.533Z,91.16
2019-05-22T00:36:23.599Z,91.05
2019-05-22T00:37:23.499Z,90.95
2019-05-22T00:38:23.478Z,90.95
2019-05-22T00:39:23.482Z,91.16
2019-05-22T00:40:23.521Z,91.26
2019-05-22T00:41:23.454Z,90.95
2019-05-22T00:42:23.454Z,91.05
2019-05-22T00:43:23.413Z,90.95
2019-05-22T00:44:23.443Z,91.05
2019-05-22T00:45:23.513Z,90.95
2019-05-22T00:46:23.516Z,90.75
2019-05-22T00:47:23.379Z,90.55
2019-05-22T00:48:23.386Z,90.64
2019-05-22T00:49:23.380Z,90.85
2019-05-22T00:50:23.350Z,90.75
2019-05-22T00:51:23.343Z,90.55
2019-05-22T00:52:23.336Z,90.64
2019-05-22T00:53:23.344Z,90.75
2019-05-22T00:54:23.318Z,90.75
2019-05-22T00:55:23.304Z,90.85
2019-05-22T00:56:23.374Z,91.05
2019-05-22T00:57:23.394Z,91.16
2019-05-22T00:58:23.258Z,91.05
2019-05-22T00:59:23.263Z,91.16
2019-05-22T01:00:23.239Z,91.20
2019-05-22T01:01:23.234Z,91.40
2019-05-22T01:02:23.342Z,91.40
2019-05-22T01:03:23.225Z,91.40
2019-05-22T02:21:15.205Z,91.03
2019-05-22T02:22:15.188Z,91.18
2019-05-22T02:23:15.215Z,91.08
2019-05-22T02:24:15.207Z,90.98
2019-05-22T02:25:15.243Z,90.88
2019-05-22T02:26:15.175Z,90.88
2019-05-22T02:27:15.145Z,90.98
2019-05-22T02:28:15.155Z,91.08
2019-05-22T02:29:15.129Z,91.08
2019-05-22T02:30:15.162Z,91.08
2019-05-22T02:31:15.103Z,91.18
2019-05-22T02:32:15.087Z,91.28
2019-05-22T02:33:15.086Z,91.28
2019-05-22T02:34:15.121Z,91.28
2019-05-22T02:35:15.077Z,91.28
2019-05-22T02:36:15.062Z,91.39
2019-05-22T02:37:15.068Z,91.28
2019-05-22T02:38:15.031Z,91.18
2019-05-22T02:39:15.068Z,91.18
2019-05-22T02:40:15.023Z,91.28
2019-05-22T02:41:15.032Z,91.39
2019-05-22T02:42:15.013Z,91.39
2019-05-22T02:43:14.980Z,91.49
2019-05-22T02:44:14.956Z,91.49
2019-05-22T02:45:14.968Z,91.49
2019-05-22T02:46:14.957Z,91.59
2019-05-22T02:47:20.025Z,91.59
2019-05-22T02:48:15.938Z,91.59
2019-05-22T02:49:14.907Z,91.69
2019-05-22T02:50:14.942Z,91.79
2019-05-22T02:51:14.958Z,91.89
2019-05-22T02:52:14.887Z,91.89
2019-05-22T02:53:14.900Z,91.89
2019-05-22T02:54:14.869Z,91.79
2019-05-22T02:55:14.859Z,91.69
2019-05-22T02:56:14.852Z,91.89
2019-05-22T02:57:14.830Z,91.83
2019-05-22T02:58:14.812Z,91.83
2019-05-22T02:59:14.789Z,91.83
2019-05-22T03:00:14.808Z,91.83
2019-05-22T03:01:14.771Z,91.74
2019-05-22T03:02:14.881Z,91.83
2019-05-22T03:03:14.777Z,91.83
2019-05-22T03:04:14.768Z,91.94
2019-05-22T03:05:14.753Z,91.83
2019-05-22T03:06:14.738Z,91.94
2019-05-22T03:07:14.709Z,92.04
2019-05-22T03:08:14.699Z,91.94
2019-05-22T03:09:14.680Z,91.94
2019-05-22T03:10:14.697Z,91.83
2019-05-22T03:11:14.675Z,91.83
2019-05-22T03:12:14.661Z,91.94
2019-05-22T03:13:14.658Z,92.04
2019-05-22T03:14:14.662Z,91.83
2019-05-22T03:15:14.641Z,91.74
2019-05-22T03:16:14.640Z,91.83
2019-05-22T03:17:14.711Z,91.83
2019-05-22T03:18:14.614Z,91.94
2019-05-22T03:19:14.574Z,92.04
2019-05-22T03:20:14.559Z,92.04
2019-05-22T03:21:14.550Z,92.04
2019-05-22T03:22:14.570Z,92.04
2019-05-22T03:23:14.643Z,92.14
2019-05-22T03:24:14.550Z,92.14
2019-05-22T03:25:14.641Z,92.24
2019-05-22T03:26:14.534Z,92.14
2019-05-22T03:27:14.531Z,92.24
2019-05-22T03:28:14.478Z,92.24
2019-05-22T03:29:14.489Z,92.24
2019-05-22T03:30:14.461Z,92.24
2019-05-22T03:31:14.585Z,92.24
2019-05-22T03:32:14.476Z,92.35
2019-05-22T03:33:14.569Z,92.55
2019-05-22T03:34:14.425Z,92.55
2019-05-22T03:35:14.401Z,92.55
2019-05-22T03:36:14.412Z,92.65
2019-05-22T03:37:14.505Z,92.86
2019-05-22T03:38:14.543Z,92.96
2019-05-22T03:39:14.382Z,92.96
2019-05-22T03:40:14.350Z,93.06
2019-05-22T03:41:14.344Z,93.06
2019-05-22T03:42:14.352Z,93.16
2019-05-22T03:43:14.351Z,93.26
2019-05-22T03:44:14.456Z,93.26
2019-05-22T03:45:14.323Z,93.26
2019-05-22T03:46:14.312Z,93.47
2019-05-22T03:47:14.276Z,93.47
2019-05-22T03:48:14.261Z,93.57
2019-05-22T03:49:29.240Z,93.57
2019-05-22T03:50:15.264Z,93.57
2019-05-22T03:51:14.308Z,93.62
2019-05-22T03:52:14.226Z,93.57
2019-05-22T03:53:14.213Z,93.62
2019-05-22T03:54:14.255Z,93.62
2019-05-22T03:55:14.359Z,93.51
2019-05-22T03:56:14.203Z,93.51
2019-05-22T03:57:14.195Z,93.51
2019-05-22T03:58:14.161Z,93.62
2019-05-22T03:59:14.163Z,93.71
2019-05-22T04:00:14.275Z,93.82
2019-05-22T04:01:14.123Z,93.82
2019-05-22T04:02:14.145Z,93.82
2019-05-22T04:03:14.133Z,93.82
2019-05-22T04:04:14.105Z,93.92
2019-05-22T04:05:14.095Z,94.02
2019-05-22T04:06:14.192Z,94.02
2019-05-22T04:07:14.052Z,93.92
2019-05-22T04:08:14.043Z,93.82
2019-05-22T04:09:14.067Z,93.71
2019-05-22T04:10:14.053Z,93.71
2019-05-22T04:11:14.153Z,93.62
2019-05-22T04:12:14.024Z,93.62
2019-05-22T04:13:13.993Z,93.62
2019-05-22T04:14:14.003Z,93.62
2019-05-22T04:15:13.994Z,93.62
2019-05-22T04:16:13.992Z,93.62
2019-05-22T04:17:14.025Z,93.62
2019-05-22T04:18:13.961Z,93.62
2019-05-22T04:19:13.924Z,93.62
2019-05-22T04:20:13.921Z,93.62
2019-05-22T04:21:13.925Z,93.51
2019-05-22T04:22:13.912Z,93.62
2019-05-22T04:23:13.886Z,93.62
2019-05-22T04:24:13.875Z,93.62
2019-05-22T04:25:13.865Z,93.62
2019-05-22T04:26:13.917Z,93.51
2019-05-22T04:27:13.849Z,93.62
2019-05-22T04:28:13.825Z,93.51
2019-05-22T04:29:13.895Z,93.62
2019-05-22T04:30:13.819Z,93.62
2019-05-22T04:31:13.825Z,93.71
2019-05-22T04:32:13.810Z,93.71
2019-05-22T04:33:13.819Z,93.82
2019-05-22T04:34:13.794Z,93.82
2019-05-22T04:35:13.758Z,93.82
2019-05-22T04:36:13.767Z,93.71
2019-05-22T04:37:13.759Z,93.62
2019-05-22T04:38:13.726Z,93.62
2019-05-22T04:39:13.721Z,93.41
2019-05-22T04:40:13.706Z,93.51
2019-05-22T04:41:13.696Z,93.41
2019-05-22T04:42:13.696Z,93.41
2019-05-22T04:43:13.667Z,93.41
2019-05-22T04:44:13.670Z,93.31
2019-05-22T04:45:13.688Z,93.31
2019-05-22T04:46:13.650Z,93.31
2019-05-22T04:47:13.639Z,93.21
2019-05-22T04:48:13.629Z,93.21
2019-05-22T04:49:13.605Z,93.21
2019-05-22T04:50:13.599Z,93.21
2019-05-22T04:51:13.617Z,93.10
2019-05-22T04:52:13.585Z,93.10
2019-05-22T04:53:13.571Z,93.00
2019-05-22T04:54:13.557Z,93.00
2019-05-22T04:55:13.549Z,92.80
2019-05-22T04:56:13.541Z,92.69
2019-05-22T04:57:13.539Z,92.80
2019-05-22T04:58:13.506Z,92.69
2019-05-22T04:59:13.498Z,92.59
2019-05-22T05:00:13.488Z,92.49
2019-05-22T05:01:13.477Z,92.59
2019-05-22T05:02:13.482Z,92.69
2019-05-22T05:03:13.478Z,92.69
2019-05-22T05:04:13.450Z,92.69
2019-05-22T05:05:13.436Z,92.69
2019-05-22T05:06:13.428Z,92.49
2019-05-22T05:07:13.433Z,92.39
2019-05-22T05:08:13.527Z,92.33
2019-05-22T05:09:13.419Z,92.23
2019-05-22T05:10:13.407Z,92.13
2019-05-22T05:11:13.406Z,92.13
2019-05-22T05:12:13.407Z,92.33
2019-05-22T05:13:13.428Z,92.33
2019-05-22T05:14:13.347Z,92.54
2019-05-22T05:15:13.358Z,92.43
2019-05-22T05:16:13.347Z,92.54
2019-05-22T05:17:13.339Z,92.54
2019-05-22T05:18:13.307Z,92.64
2019-05-22T05:19:13.453Z,92.84
2019-05-22T05:20:22.055Z,92.84
2019-05-22T05:21:14.267Z,92.84
2019-05-22T05:22:13.291Z,92.84
2019-05-22T05:23:21.066Z,92.94
2019-05-22T05:24:13.267Z,93.15
2019-05-22T05:25:13.306Z,93.25
2019-05-22T05:26:13.245Z,93.35
2019-05-22T05:27:13.234Z,93.45
2019-05-22T05:28:13.227Z,93.55
2019-05-22T05:29:13.217Z,93.55
2019-05-22T05:30:13.196Z,93.66
2019-05-22T05:31:13.187Z,93.66
2019-05-22T05:32:13.177Z,93.66
2019-05-22T05:33:13.147Z,93.76
2019-05-22T05:34:13.259Z,93.86
2019-05-22T05:35:13.162Z,93.96
2019-05-22T05:36:13.239Z,94.07
2019-05-22T05:37:13.096Z,94.07
2019-05-22T05:38:13.103Z,94.07
2019-05-22T05:39:13.097Z,94.17
2019-05-22T05:40:13.116Z,94.27
2019-05-22T05:41:13.221Z,94.17
2019-05-22T05:42:13.063Z,94.07
2019-05-22T05:43:13.035Z,94.07
2019-05-22T05:44:13.034Z,93.96
2019-05-22T05:45:13.713Z,94.17
2019-05-22T05:46:13.013Z,94.17
2019-05-22T05:47:13.017Z,94.17
2019-05-22T05:48:13.100Z,94.27
2019-05-22T05:49:13.003Z,94.27
2019-05-22T05:50:12.987Z,94.27
2019-05-22T05:51:12.980Z,94.27
2019-05-22T05:52:12.981Z,94.27
2019-05-22T05:53:12.936Z,94.32
2019-05-22T05:54:13.040Z,94.42
2019-05-22T05:55:12.920Z,94.42
2019-05-22T05:56:12.920Z,94.48
2019-05-22T05:57:12.908Z,94.48
2019-05-22T05:58:12.900Z,94.68
2019-05-22T05:59:12.992Z,94.68
2019-05-22T06:00:12.868Z,94.68
2019-05-22T06:01:12.875Z,94.58
2019-05-22T06:02:12.858Z,94.58
2019-05-22T06:03:12.858Z,94.37
2019-05-22T06:04:12.820Z,94.21
2019-05-22T06:05:12.799Z,94.21
2019-05-22T06:06:12.808Z,94.21
2019-05-22T06:07:12.815Z,94.21
2019-05-22T06:08:12.791Z,94.21
2019-05-22T06:09:12.859Z,94.21
2019-05-22T06:10:12.799Z,94.32
2019-05-22T06:11:12.759Z,94.21
2019-05-22T06:12:12.755Z,94.01
2019-05-22T06:13:12.710Z,94.01
2019-05-22T06:14:12.700Z,93.91
2019-05-22T06:15:12.825Z,94.01
2019-05-22T06:16:12.740Z,94.01
2019-05-22T06:17:12.708Z,94.01
2019-05-22T06:18:12.693Z,93.91
2019-05-22T06:19:12.691Z,93.80
2019-05-22T06:20:12.682Z,93.70
2019-05-22T06:21:12.651Z,93.80
2019-05-22T06:22:12.640Z,93.80
2019-05-22T06:23:12.611Z,93.80
2019-05-22T06:24:12.618Z,93.91
2019-05-22T06:25:12.667Z,93.80
2019-05-22T06:26:12.597Z,93.80
2019-05-22T06:27:12.590Z,93.60
2019-05-22T06:28:12.558Z,93.60
2019-05-22T06:29:12.561Z,93.60
2019-05-22T06:30:12.650Z,93.50
2019-05-22T06:31:12.563Z,93.50
2019-05-22T06:32:12.532Z,93.29
2019-05-22T06:33:12.518Z,93.09
2019-05-22T06:34:12.479Z,92.99
2019-05-22T06:35:12.481Z,92.99
2019-05-22T06:36:12.604Z,92.99
2019-05-22T06:37:12.556Z,93.09
2019-05-22T06:38:12.453Z,92.88
2019-05-22T06:39:12.445Z,92.99
2019-05-22T06:40:12.439Z,92.99
2019-05-22T06:41:12.401Z,93.09
2019-05-22T06:42:12.438Z,93.09
2019-05-22T06:43:12.521Z,93.09
2019-05-22T06:44:12.416Z,93.09
2019-05-22T06:45:12.384Z,93.09
2019-05-22T06:46:12.381Z,93.09
2019-05-22T06:47:12.373Z,92.99
2019-05-22T06:48:12.475Z,92.88
2019-05-22T06:49:12.355Z,92.88
2019-05-22T06:50:12.342Z,92.78
2019-05-22T06:51:19.567Z,92.58
2019-05-22T06:52:13.422Z,92.37
2019-05-22T06:53:12.282Z,92.27
2019-05-22T06:54:12.302Z,92.27
2019-05-22T06:55:12.382Z,92.27
2019-05-22T06:56:12.259Z,91.86
2019-05-22T06:57:12.241Z,91.86
2019-05-22T06:58:12.255Z,91.76
2019-05-22T06:59:12.237Z,91.76
2019-05-22T07:00:15.036Z,91.76
2019-05-22T07:01:12.317Z,91.66
2019-05-22T07:02:12.228Z,91.46
2019-05-22T07:03:12.163Z,91.05
2019-05-22T07:04:12.262Z,91.15
2019-05-22T07:05:12.173Z,91.15
2019-05-22T07:06:12.163Z,91.15
2019-05-22T07:07:12.537Z,91.05
2019-05-22T07:08:12.146Z,91.25
2019-05-22T07:09:12.239Z,91.25
2019-05-22T07:10:12.104Z,91.25
2019-05-22T07:11:12.086Z,91.35
2019-05-22T07:12:12.073Z,91.35
2019-05-22T07:13:12.074Z,91.46
2019-05-22T07:14:12.093Z,91.35
2019-05-22T07:15:12.046Z,91.35
2019-05-22T07:16:12.051Z,91.15
2019-05-22T07:17:12.136Z,91.05
2019-05-22T07:18:13.115Z,91.05
2019-05-22T07:19:12.016Z,90.64
2019-05-22T07:20:12.024Z,90.53
2019-05-22T07:21:12.043Z,90.33
2019-05-22T07:22:11.954Z,90.33
2019-05-22T07:23:12.003Z,90.53
2019-05-22T07:24:11.938Z,90.23
2019-05-22T07:25:11.948Z,90.12
2019-05-22T07:26:11.936Z,90.08
2019-05-22T07:27:12.062Z,90.19
2019-05-22T07:28:11.928Z,90.08
2019-05-22T07:29:11.919Z,89.58
2019-05-22T07:30:11.890Z,89.47
2019-05-22T07:31:11.862Z,89.26
2019-05-22T07:32:11.854Z,89.37
2019-05-22T07:33:11.855Z,89.17
2019-05-22T07:34:11.855Z,88.55
2019-05-22T07:35:11.844Z,88.76
2019-05-22T07:36:16.481Z,88.55
2019-05-22T07:37:12.828Z,88.45
2019-05-22T07:38:11.797Z,88.55
2019-05-22T07:39:11.822Z,88.14
2019-05-22T07:40:11.818Z,88.14
2019-05-22T07:41:11.773Z,88.04
2019-05-22T07:42:11.736Z,87.94
2019-05-22T07:43:11.855Z,88.04
2019-05-22T07:44:11.726Z,88.04
2019-05-22T07:45:11.729Z,87.94
2019-05-22T07:46:11.730Z,87.84
2019-05-22T07:47:11.741Z,87.84
2019-05-22T07:48:11.857Z,88.00
2019-05-22T07:49:11.657Z,88.00
2019-05-22T07:50:11.677Z,88.20
2019-05-22T07:51:11.657Z,88.00
2019-05-22T07:52:11.638Z,87.79
2019-05-22T07:53:11.650Z,87.79
2019-05-22T07:54:11.606Z,87.59
2019-05-22T07:55:11.621Z,87.70
2019-05-22T07:56:11.634Z,87.70
2019-05-22T07:57:11.610Z,87.70
2019-05-22T07:58:11.678Z,87.79
2019-05-22T07:59:11.583Z,88.00
2019-05-22T08:00:11.538Z,88.10
2019-05-22T08:01:11.560Z,88.00
2019-05-22T08:02:11.625Z,88.14
2019-05-22T08:03:11.537Z,88.35
2019-05-22T08:04:11.655Z,88.76
2019-05-22T08:05:11.684Z,89.06
2019-05-22T08:06:11.516Z,88.96
2019-05-22T08:07:11.501Z,88.85
2019-05-22T08:08:11.479Z,88.85
2019-05-22T08:09:11.474Z,88.45
2019-05-22T08:10:11.569Z,88.55
2019-05-22T08:11:11.429Z,88.65
2019-05-22T08:12:11.421Z,88.85
2019-05-22T08:13:11.406Z,88.85
2019-05-22T08:14:11.534Z,88.96
2019-05-22T08:15:11.398Z,88.85
2019-05-22T08:16:11.482Z,88.65
2019-05-22T08:17:11.382Z,88.55
2019-05-22T08:18:11.380Z,88.96
2019-05-22T08:19:11.390Z,88.45
2019-05-22T08:20:11.319Z,87.63
2019-05-22T08:21:11.311Z,87.84
2019-05-22T08:22:11.360Z,88.14
2019-05-22T08:23:11.289Z,88.24
2019-05-22T08:24:11.423Z,87.84
2019-05-22T08:25:11.293Z,87.63
2019-05-22T08:26:11.309Z,87.23
2019-05-22T08:27:11.288Z,86.91
2019-05-22T08:28:11.260Z,87.43
2019-05-22T08:29:11.371Z,87.43
2019-05-22T08:30:11.250Z,87.32
2019-05-22T08:31:11.230Z,87.23
2019-05-22T08:32:11.195Z,86.98
2019-05-22T08:33:11.195Z,86.77
2019-05-22T08:34:11.174Z,86.67
2019-05-22T08:35:11.212Z,86.94
2019-05-22T08:36:11.170Z,86.43
2019-05-22T08:37:11.279Z,86.53
2019-05-22T08:38:11.129Z,86.49
2019-05-22T08:39:11.122Z,86.18
2019-05-22T08:40:11.111Z,85.74
2019-05-22T08:41:11.112Z,84.92
2019-05-22T08:42:11.101Z,84.72
2019-05-22T08:43:11.093Z,84.37
2019-05-22T08:44:16.030Z,83.96
2019-05-22T08:45:12.050Z,83.56
2019-05-22T08:46:11.186Z,83.45
2019-05-22T08:47:11.075Z,83.65
2019-05-22T08:48:11.034Z,83.96
2019-05-22T08:49:11.022Z,83.72
2019-05-22T08:50:11.022Z,83.72
2019-05-22T08:51:11.015Z,83.01
2019-05-22T08:52:22.984Z,83.15
2019-05-22T08:53:11.962Z,83.56
2019-05-22T08:54:10.997Z,83.56
2019-05-22T08:55:10.952Z,83.35
2019-05-22T08:56:10.927Z,83.25
2019-05-22T08:57:11.062Z,83.45
2019-05-22T08:58:11.055Z,83.56
2019-05-22T08:59:19.533Z,83.15
2019-05-22T09:00:12.519Z,83.25
2019-05-22T09:01:10.907Z,83.45
2019-05-22T09:02:10.866Z,83.45
2019-05-22T09:03:10.861Z,83.86
2019-05-22T09:04:10.989Z,84.17
2019-05-22T09:05:10.895Z,84.37
2019-05-22T09:06:11.071Z,83.65
2019-05-22T09:07:10.815Z,83.62
2019-05-22T09:08:10.926Z,83.31
2019-05-22T09:09:10.816Z,82.19
2019-05-22T09:10:10.815Z,82.66
2019-05-22T09:11:10.775Z,82.52
2019-05-22T09:12:10.775Z,82.12
2019-05-22T09:13:10.755Z,81.71
2019-05-22T09:14:10.818Z,81.20
2019-05-22T09:15:10.724Z,80.99
2019-05-22T09:16:10.730Z,80.96
2019-05-22T09:17:10.731Z,80.96
2019-05-22T09:18:10.715Z,80.76
2019-05-22T09:19:10.850Z,80.24
2019-05-22T09:20:10.943Z,80.45
2019-05-22T09:21:10.665Z,80.15
2019-05-22T09:22:10.667Z,79.33
2019-05-22T09:23:10.649Z,79.33
2019-05-22T09:24:10.758Z,79.63
2019-05-22T09:25:10.736Z,78.76
2019-05-22T09:26:10.619Z,78.45
2019-05-22T09:27:10.627Z,79.16
2019-05-22T09:28:10.599Z,78.66
2019-05-22T09:29:10.597Z,78.55
2019-05-22T09:30:10.587Z,78.55
2019-05-22T09:31:10.668Z,78.45
2019-05-22T09:32:10.538Z,78.76
2019-05-22T09:33:10.551Z,78.25
2019-05-22T09:34:10.669Z,78.76
2019-05-22T09:35:10.528Z,78.86
2019-05-22T09:36:10.656Z,78.66
2019-05-22T09:37:10.512Z,77.94
2019-05-22T09:38:10.480Z,78.05
2019-05-22T09:39:10.570Z,77.64
2019-05-22T09:40:10.479Z,78.05
2019-05-22T09:41:10.449Z,78.76
2019-05-22T09:42:10.461Z,77.74
2019-05-22T09:43:10.430Z,78.15
2019-05-22T09:44:10.440Z,77.64
2019-05-22T09:45:10.455Z,77.44
2019-05-22T09:46:10.409Z,77.64
2019-05-22T09:47:10.393Z,77.74
2019-05-22T09:48:10.384Z,77.33
2019-05-22T09:49:10.380Z,77.64
2019-05-22T09:50:10.428Z,77.74
2019-05-22T09:51:10.331Z,77.64
2019-05-22T09:52:10.342Z,76.42
2019-05-22T09:53:10.324Z,76.82
2019-05-22T09:54:10.325Z,75.91
2019-05-22T09:55:10.427Z,76.31
2019-05-22T09:56:10.300Z,76.31
2019-05-22T09:57:10.271Z,75.81
2019-05-22T09:58:10.261Z,75.70
2019-05-22T09:59:10.242Z,76.31
2019-05-22T10:00:10.234Z,76.21
2019-05-22T10:01:11.837Z,76.42
2019-05-22T10:02:10.232Z,76.72
2019-05-22T10:03:10.192Z,75.70
2019-05-22T10:04:10.213Z,76.01
2019-05-22T10:05:10.269Z,76.01
2019-05-22T10:06:10.329Z,76.42
2019-05-22T10:07:10.164Z,76.07
2019-05-22T10:08:10.175Z,76.79
2019-05-22T10:09:10.166Z,76.99
2019-05-22T10:10:10.174Z,76.38
2019-05-22T10:11:10.127Z,76.14
2019-05-22T10:12:10.103Z,76.04
2019-05-22T10:13:10.098Z,75.33
2019-05-22T10:14:10.093Z,74.52
2019-05-22T10:15:10.499Z,74.72
2019-05-22T10:16:10.057Z,74.72
2019-05-22T10:17:10.074Z,75.23
2019-05-22T10:18:10.175Z,74.41
2019-05-22T10:19:10.055Z,75.02
2019-05-22T10:20:10.305Z,74.92
2019-05-22T10:21:10.020Z,74.72
2019-05-22T10:22:10.135Z,74.01
2019-05-22T10:23:15.334Z,74.41
2019-05-22T10:24:11.109Z,74.92
2019-05-22T10:25:15.812Z,74.41
2019-05-22T10:26:10.968Z,74.21
2019-05-22T10:27:09.959Z,74.62
2019-05-22T10:28:09.965Z,74.31
2019-05-22T10:29:10.076Z,73.70
2019-05-22T10:30:09.926Z,74.21
2019-05-22T10:31:11.069Z,73.39
2019-05-22T10:32:09.926Z,73.19
2019-05-22T10:33:09.896Z,73.80
2019-05-22T10:34:09.892Z,74.11
2019-05-22T10:35:09.993Z,74.11
2019-05-22T10:36:09.867Z,74.48
2019-05-22T10:37:09.847Z,74.38
2019-05-22T10:38:09.831Z,74.65
2019-05-22T10:39:09.838Z,73.43
2019-05-22T10:40:09.799Z,73.13
2019-05-22T10:41:09.867Z,72.41
2019-05-22T10:42:09.811Z,72.62
2019-05-22T10:43:09.779Z,72.92
2019-05-22T10:44:09.759Z,73.22
2019-05-22T10:45:09.777Z,72.58
2019-05-22T10:46:09.783Z,72.89
2019-05-22T10:47:09.750Z,72.69
2019-05-22T10:48:09.839Z,72.38
2019-05-22T10:49:09.730Z,72.17
2019-05-22T10:50:09.728Z,72.99
2019-05-22T10:51:09.670Z,72.48
2019-05-22T10:52:09.690Z,71.88
2019-05-22T10:53:09.662Z,71.06
2019-05-22T10:54:09.658Z,71.88
2019-05-22T10:55:09.667Z,71.73
2019-05-22T10:56:09.683Z,71.64
2019-05-22T10:57:09.610Z,71.44
2019-05-22T10:58:09.765Z,71.64
2019-05-22T10:59:09.660Z,71.33
2019-05-22T11:00:09.644Z,71.70
2019-05-22T11:01:09.575Z,71.40
2019-05-22T11:02:09.587Z,70.59
2019-05-22T11:03:09.542Z,71.70
2019-05-22T11:04:09.522Z,71.40
2019-05-22T11:05:09.551Z,71.09
2019-05-22T11:06:09.566Z,69.78
2019-05-22T11:07:09.565Z,70.18
2019-05-22T11:08:09.505Z,69.17
2019-05-22T11:09:09.521Z,68.73
2019-05-22T11:10:09.513Z,69.03
2019-05-22T11:11:09.486Z,68.83
2019-05-22T11:12:09.464Z,69.54
2019-05-22T11:13:09.447Z,68.02
2019-05-22T11:14:09.731Z,67.85
2019-05-22T11:15:09.404Z,67.75
2019-05-22T11:16:09.555Z,67.55
2019-05-22T11:17:09.406Z,66.40
2019-05-22T11:18:09.395Z,66.50
2019-05-22T11:19:09.509Z,67.51
2019-05-22T11:20:09.395Z,67.51
2019-05-22T11:21:09.359Z,68.93
2019-05-22T11:22:09.339Z,68.70
2019-05-22T11:23:16.400Z,67.38
2019-05-22T11:24:09.322Z,67.68
2019-05-22T11:25:09.300Z,67.38
2019-05-22T11:26:09.325Z,66.84
2019-05-22T11:27:09.301Z,65.93
2019-05-22T11:28:09.290Z,66.33
2019-05-22T11:29:09.374Z,66.64
2019-05-22T11:30:09.282Z,66.64
2019-05-22T11:31:09.241Z,65.42
2019-05-22T11:32:09.302Z,65.93
2019-05-22T11:33:09.374Z,66.03
2019-05-22T11:34:09.235Z,65.96
2019-05-22T11:35:09.223Z,67.28
2019-05-22T11:36:09.194Z,67.68
2019-05-22T11:37:09.193Z,67.38
2019-05-22T11:38:09.183Z,67.48
2019-05-22T11:39:09.301Z,67.68
2019-05-22T11:40:09.166Z,68.49
2019-05-22T11:41:09.180Z,67.48
2019-05-22T11:42:09.144Z,68.26
2019-05-22T11:43:09.154Z,67.35
2019-05-22T11:44:09.105Z,66.13
2019-05-22T11:45:09.214Z,66.84
2019-05-22T11:46:09.095Z,67.14
2019-05-22T11:47:09.106Z,67.05
2019-05-22T11:48:09.100Z,66.74
2019-05-22T11:49:09.075Z,67.65
2019-05-22T11:50:09.086Z,67.45
2019-05-22T11:51:09.026Z,67.93
2019-05-22T11:52:09.036Z,67.82
2019-05-22T11:53:09.053Z,67.08
2019-05-22T11:54:09.923Z,66.58
2019-05-22T11:55:08.990Z,66.14
2019-05-22T11:56:09.108Z,64.73
2019-05-22T11:57:08.980Z,64.22
2019-05-22T11:58:08.968Z,64.12
2019-05-22T11:59:08.986Z,64.52
2019-05-22T12:00:09.431Z,65.53
2019-05-22T12:01:08.920Z,65.03
2019-05-22T12:02:08.909Z,65.91
2019-05-22T12:03:09.030Z,65.20
2019-05-22T12:04:08.909Z,65.17
2019-05-22T12:05:08.900Z,65.07
2019-05-22T12:06:08.880Z,63.93
2019-05-22T12:07:08.881Z,63.42
2019-05-22T12:08:08.991Z,63.52
2019-05-22T12:09:08.860Z,62.38
2019-05-22T12:10:08.952Z,63.29
2019-05-22T12:11:08.953Z,63.39
2019-05-22T12:12:08.902Z,63.19
2019-05-22T12:13:08.824Z,62.68
2019-05-22T12:14:08.796Z,62.79
2019-05-22T12:15:08.771Z,62.48
2019-05-22T12:16:08.785Z,63.49
2019-05-22T12:17:08.852Z,62.76
2019-05-22T12:18:08.793Z,62.25
2019-05-22T12:19:08.746Z,60.94
2019-05-22T12:20:08.723Z,61.85
2019-05-22T12:21:08.704Z,62.22
2019-05-22T12:22:08.714Z,62.73
2019-05-22T12:23:08.706Z,61.92
2019-05-22T12:24:13.493Z,60.78
2019-05-22T12:25:09.655Z,60.48
2019-05-22T12:26:08.668Z,61.49
2019-05-22T12:27:08.666Z,60.85
2019-05-22T12:28:08.745Z,60.22
2019-05-22T12:29:08.647Z,60.22
2019-05-22T12:30:08.782Z,60.19
2019-05-22T12:31:08.628Z,58.45
2019-05-22T12:32:08.588Z,58.12
2019-05-22T12:33:13.210Z,58.93
2019-05-22T12:34:09.597Z,58.22
2019-05-22T12:35:08.719Z,58.50
2019-05-22T12:36:08.568Z,57.70
2019-05-22T12:37:08.568Z,57.19
2019-05-22T12:38:08.528Z,55.28
2019-05-22T12:39:08.541Z,54.88
2019-05-22T12:40:08.535Z,56.11
2019-05-22T12:41:08.582Z,56.31
2019-05-22T12:42:08.491Z,56.62
2019-05-22T12:43:08.470Z,57.02
2019-05-22T12:44:08.481Z,56.14
2019-05-22T12:45:08.600Z,56.87
2019-05-22T12:46:08.492Z,57.07
2019-05-22T12:47:08.461Z,58.38
2019-05-22T12:48:08.472Z,56.67
2019-05-22T12:49:09.150Z,56.57
2019-05-22T12:50:08.431Z,57.48
2019-05-22T12:51:08.423Z,58.86
2019-05-22T12:52:08.507Z,59.94
2019-05-22T12:53:08.400Z,56.01
2019-05-22T12:54:08.388Z,57.02
2019-05-22T12:55:08.348Z,57.62
2019-05-22T12:56:08.456Z,56.51
2019-05-22T12:57:08.357Z,56.41
2019-05-22T12:58:08.427Z,57.62
2019-05-22T12:59:08.331Z,56.71
2019-05-22T13:00:08.318Z,56.41
2019-05-22T13:01:08.299Z,56.82
2019-05-22T13:02:08.307Z,55.31
2019-05-22T13:03:08.268Z,55.00
2019-05-22T13:04:08.288Z,55.51
2019-05-22T13:05:08.258Z,57.02
2019-05-22T13:06:08.346Z,57.22
2019-05-22T13:07:08.249Z,55.68
2019-05-22T13:08:08.248Z,56.59
2019-05-22T13:09:08.232Z,57.29
2019-05-22T13:10:08.209Z,55.68
2019-05-22T13:11:08.209Z,56.38
2019-05-22T13:12:08.204Z,56.38
2019-05-22T13:13:08.223Z,56.59
2019-05-22T13:14:08.161Z,56.59
2019-05-22T13:15:10.321Z,56.19
2019-05-22T13:16:08.243Z,55.58
2019-05-22T13:17:08.171Z,54.58
2019-05-22T13:18:08.205Z,57.59
2019-05-22T13:19:08.134Z,57.70
2019-05-22T13:20:08.125Z,56.16
2019-05-22T13:21:08.082Z,55.55
2019-05-22T13:22:08.176Z,55.86
2019-05-22T13:23:08.098Z,55.48
2019-05-22T13:24:08.079Z,55.28
2019-05-22T13:25:08.043Z,55.58
2019-05-22T13:26:08.071Z,56.49
2019-05-22T13:27:08.141Z,55.79
2019-05-22T13:28:08.014Z,56.09
2019-05-22T13:29:08.024Z,56.51
2019-05-22T13:30:08.226Z,57.02
2019-05-22T13:31:07.977Z,56.82
2019-05-22T13:32:08.088Z,56.11
2019-05-22T13:33:07.991Z,56.74
2019-05-22T13:34:07.936Z,57.15
2019-05-22T13:35:07.963Z,58.38
2019-05-22T13:36:08.069Z,57.17
2019-05-22T13:37:08.019Z,57.17
2019-05-22T13:38:07.911Z,57.81
2019-05-22T13:39:07.917Z,56.60
2019-05-22T13:40:18.115Z,57.90
2019-05-22T13:41:08.882Z,58.41
2019-05-22T13:42:07.952Z,57.90
2019-05-22T13:43:07.869Z,58.38
2019-05-22T13:44:07.860Z,57.98
2019-05-22T13:45:07.828Z,57.37
2019-05-22T13:46:07.860Z,56.84
2019-05-22T13:47:07.950Z,56.74
2019-05-22T13:48:07.942Z,57.12
2019-05-22T13:49:07.843Z,57.92
2019-05-22T13:50:07.781Z,56.79
2019-05-22T13:51:07.775Z,57.50
2019-05-22T13:52:07.792Z,56.36
2019-05-22T13:53:07.741Z,55.66
2019-05-22T13:54:07.873Z,56.46
2019-05-22T13:55:07.727Z,54.72
2019-05-22T13:56:07.749Z,54.33
2019-05-22T13:57:07.824Z,54.53
2019-05-22T13:58:07.727Z,54.40
2019-05-22T13:59:07.704Z,53.50
2019-05-22T14:00:09.426Z,53.00
2019-05-22T14:01:07.654Z,51.67
2019-05-22T14:02:07.655Z,52.87
2019-05-22T14:03:07.807Z,52.47
2019-05-22T14:04:07.660Z,52.97
2019-05-22T14:05:07.648Z,54.07
2019-05-22T14:06:07.635Z,52.87
2019-05-22T14:07:07.626Z,53.64
2019-05-22T14:08:07.697Z,53.85
2019-05-22T14:09:07.630Z,52.92